Time;durP1;ratioP1;P1;durP2;ratioP2;P2;SDS_P1;SDS_P2;PMS_P1;PMS_P2;Temp;Humidity;BMP_temperature;BMP_pressure;BME280_temperature;BME280_humidity;BME280_pressure;Samples;Min_cycle;Max_cycle;Signal;HPM_P1;HPM_P2
2022/11/03 00:01:46;;;;;;;18.37;13.37;;;;;;;9.38;85.83;99865.55;1787493;80;20995;-73
2022/11/03 00:04:15;;;;;;;18.30;12.47;;;;;;;9.39;85.73;99872.55;1778445;80;20979;-75
2022/11/03 00:06:44;;;;;;;17.87;12.88;;;;;;;9.38;85.76;99868.23;1744446;80;20940;-75
2022/11/03 00:09:13;;;;;;;16.90;12.93;;;;;;;9.36;85.90;99857.72;1727572;82;21071;-74
2022/11/03 00:11:43;;;;;;;15.68;13.25;;;;;;;9.34;86.01;99859.84;1727526;82;20936;-74
2022/11/03 00:14:10;;;;;;;19.70;12.68;;;;;;;9.36;86.18;99862.27;1727717;83;21349;-77
2022/11/03 00:16:38;;;;;;;19.87;13.53;;;;;;;9.39;86.35;99859.13;1734629;81;21030;-72
2022/11/03 00:19:06;;;;;;;17.25;12.50;;;;;;;9.42;86.35;99858.64;1757674;81;21014;-72
2022/11/03 00:21:34;;;;;;;20.02;14.45;;;;;;;9.42;86.33;99855.44;1757559;81;21037;-73
2022/11/03 00:24:03;;;;;;;19.92;13.83;;;;;;;9.40;86.31;99854.06;1739301;81;21612;-73
2022/11/03 00:26:32;;;;;;;16.15;13.72;;;;;;;9.38;86.36;99849.44;1721333;82;21115;-73
2022/11/03 00:29:08;;;;;;;22.52;13.62;;;;;;;9.36;86.44;99850.19;1745026;82;21006;-75
2022/11/03 00:31:36;;;;;;;20.52;12.68;;;;;;;9.33;86.48;99855.52;1744146;82;21034;-72
2022/11/03 00:34:03;;;;;;;21.02;12.85;;;;;;;9.27;86.61;99855.13;1736302;81;20978;-75
2022/11/03 00:36:40;;;;;;;19.30;13.00;;;;;;;9.22;86.82;99849.65;1754539;81;21126;-72
2022/11/03 00:39:06;;;;;;;21.27;12.90;;;;;;;9.21;87.13;99845.88;1725702;83;21031;-72
2022/11/03 00:41:33;;;;;;;21.55;12.30;;;;;;;9.24;87.40;99848.90;1726514;83;21047;-71
2022/11/03 00:44:00;;;;;;;17.67;12.45;;;;;;;9.28;87.45;99843.86;1726434;83;20963;-72
2022/11/03 00:46:27;;;;;;;19.48;13.78;;;;;;;9.31;87.49;99846.06;1727241;81;21098;-71
2022/11/03 00:48:54;;;;;;;19.45;13.15;;;;;;;9.33;87.41;99850.16;1756638;81;21116;-72
2022/11/03 00:51:28;;;;;;;16.12;11.90;;;;;;;9.31;87.21;99855.45;1756615;81;20975;-72
2022/11/03 00:54:00;;;;;;;28.98;16.23;;;;;;;9.27;87.20;99852.96;1756580;81;21019;-69
2022/11/03 00:56:30;;;;;;;27.00;13.78;;;;;;;9.16;87.24;99850.06;1750240;81;20987;-73
2022/11/03 00:58:58;;;;;;;17.90;12.47;;;;;;;9.12;87.41;99850.25;1734502;81;21099;-71
2022/11/03 01:01:28;;;;;;;23.30;13.93;;;;;;;9.15;87.56;99850.32;1738740;81;21141;-72
2022/11/03 01:06:50;;;;;;;17.15;12.65;;;;;;;9.23;87.58;99849.13;1743136;81;20991;-77
2022/11/03 01:09:28;;;;;;;17.25;13.18;;;;;;;9.25;87.28;99847.85;1756734;81;21043;-78
2022/11/03 01:12:15;;;;;;;19.10;14.20;;;;;;;9.24;87.15;99857.47;1729790;81;21042;-76
2022/11/03 01:14:46;;;;;;;26.12;13.53;;;;;;;9.18;87.06;99857.36;1728952;81;21271;-78
2022/11/03 01:17:22;;;;;;;17.95;12.03;;;;;;;9.14;87.12;99855.39;1727057;81;21046;-76
2022/11/03 01:19:48;;;;;;;17.52;14.45;;;;;;;9.07;87.25;99854.17;1740573;81;21338;-77
2022/11/03 01:22:16;;;;;;;18.40;13.18;;;;;;;9.03;87.45;99855.70;1739474;81;21023;-77
2022/11/03 01:24:43;;;;;;;21.42;14.00;;;;;;;8.99;87.62;99858.56;1715223;82;21055;-79
2022/11/03 01:27:16;;;;;;;21.07;13.30;;;;;;;8.98;87.97;99853.42;1744607;81;20998;-75
2022/11/03 01:29:42;;;;;;;23.30;15.53;;;;;;;8.98;88.25;99838.67;1746163;81;21038;-70
2022/11/03 01:32:11;;;;;;;25.45;16.95;;;;;;;8.97;88.44;99833.83;1759253;81;21011;-69
2022/11/03 01:34:38;;;;;;;28.25;16.25;;;;;;;8.99;88.54;99834.94;1755551;81;21428;-72
2022/11/03 01:37:06;;;;;;;19.10;14.65;;;;;;;9.01;88.66;99827.48;1732755;82;20987;-73
2022/11/03 01:39:32;;;;;;;20.20;14.98;;;;;;;9.02;88.72;99829.91;1726245;83;21571;-78
2022/11/03 01:41:59;;;;;;;19.87;14.87;;;;;;;9.04;88.73;99839.89;1726475;83;20974;-76
2022/11/03 01:44:29;;;;;;;21.23;13.88;;;;;;;9.06;88.79;99837.80;1726033;83;20995;-73
2022/11/03 01:47:06;;;;;;;19.73;14.10;;;;;;;9.07;88.82;99840.75;1708445;81;20991;-74
2022/11/03 01:49:44;;;;;;;22.10;13.70;;;;;;;9.08;88.79;99837.55;1753817;81;21007;-71
2022/11/03 01:52:16;;;;;;;25.88;16.32;;;;;;;9.13;88.95;99842.50;1726350;83;21790;-72
2022/11/03 01:54:45;;;;;;;24.37;15.93;;;;;;;9.17;88.84;99838.81;1734016;81;20980;-69
2022/11/03 01:57:16;;;;;;;23.73;16.37;;;;;;;9.18;88.75;99843.13;1743635;81;21539;-72
2022/11/03 01:59:42;;;;;;;22.85;15.45;;;;;;;9.20;88.85;99845.06;1726042;83;20999;-69
2022/11/03 02:02:09;;;;;;;21.12;13.88;;;;;;;9.22;88.88;99844.28;1726072;83;21062;-73
2022/11/03 02:04:36;;;;;;;21.52;14.83;;;;;;;9.20;88.88;99837.02;1700944;83;21285;-76
2022/11/03 02:07:23;;;;;;;20.48;15.18;;;;;;;9.17;88.99;99842.83;1726581;81;21042;-73
2022/11/03 02:09:50;;;;;;;26.12;15.38;;;;;;;9.11;89.19;99844.59;1725267;81;20994;-72
2022/11/03 02:12:16;;;;;;;22.30;15.90;;;;;;;9.09;89.48;99842.69;1726097;83;20967;-72
2022/11/03 02:14:54;;;;;;;23.18;14.95;;;;;;;9.10;89.71;99836.28;1748783;81;21594;-72
2022/11/03 02:17:22;;;;;;;23.57;15.80;;;;;;;9.09;89.90;99840.00;1742690;81;21570;-73
2022/11/03 02:20:15;;;;;;;29.82;18.30;;;;;;;9.08;90.07;99845.08;1725969;83;21074;-72
2022/11/03 02:23:14;;;;;;;23.45;16.10;;;;;;;9.08;90.26;99845.59;1727647;81;21035;-71
2022/11/03 02:25:56;;;;;;;24.92;16.55;;;;;;;9.05;90.54;99844.73;1753632;80;21128;-73
2022/11/03 02:28:29;;;;;;;25.08;17.48;;;;;;;9.02;90.99;99838.48;1766855;80;21057;-68
2022/11/03 02:31:19;;;;;;;23.55;17.62;;;;;;;9.03;91.50;99838.78;1757491;80;22084;-69
2022/11/03 02:33:58;;;;;;;27.15;17.92;;;;;;;9.06;91.74;99841.01;1781459;80;20988;-76
2022/11/03 02:36:38;;;;;;;22.52;16.85;;;;;;;9.07;91.92;99834.56;1768368;80;20988;-77
2022/11/03 02:39:10;;;;;;;27.32;18.42;;;;;;;9.09;92.20;99834.64;1743268;80;21342;-80
2022/11/03 02:41:36;;;;;;;25.10;16.97;;;;;;;9.14;92.32;99837.43;1749365;81;21105;-77
2022/11/03 02:44:04;;;;;;;31.57;16.97;;;;;;;9.19;92.29;99842.08;1750261;81;21073;-77
2022/11/03 02:46:31;;;;;;;23.90;17.70;;;;;;;9.20;92.19;99837.02;1772112;80;20963;-69
2022/11/03 02:48:57;;;;;;;28.65;17.77;;;;;;;9.20;92.15;99845.06;1722231;83;21046;-71
2022/11/03 02:51:24;;;;;;;27.90;18.95;;;;;;;9.18;92.14;99842.61;1722118;83;21087;-72
2022/11/03 02:54:07;;;;;;;27.13;19.92;;;;;;;9.18;92.16;99838.58;1740096;80;21091;-72
2022/11/03 02:56:39;;;;;;;29.23;17.48;;;;;;;9.22;92.36;99832.73;1752883;80;21161;-72
2022/11/03 02:59:10;;;;;;;28.35;20.32;;;;;;;9.30;92.50;99840.43;1742952;80;21042;-73
2022/11/03 03:01:57;;;;;;;31.20;19.15;;;;;;;9.37;92.48;99839.23;1759643;80;21012;-72
2022/11/03 03:04:36;;;;;;;31.23;21.65;;;;;;;9.44;92.37;99850.66;1726418;80;21098;-72
2022/11/03 03:07:09;;;;;;;29.82;19.70;;;;;;;9.47;92.22;99856.06;1738395;80;21512;-72
2022/11/03 03:09:42;;;;;;;21.68;16.73;;;;;;;9.52;92.02;99848.11;1727635;83;21181;-73
2022/11/03 03:12:09;;;;;;;29.48;20.55;;;;;;;9.54;91.77;99841.44;1727809;83;21050;-73
2022/11/03 03:14:38;;;;;;;28.87;18.20;;;;;;;9.49;91.58;99840.55;1727821;83;21705;-72
2022/11/03 03:17:13;;;;;;;30.75;18.60;;;;;;;9.49;91.60;99844.05;1730738;80;21829;-73
2022/11/03 03:20:07;;;;;;;27.35;18.45;;;;;;;9.49;91.66;99833.31;1728044;82;21059;-73
2022/11/03 03:22:53;;;;;;;;;;;;;;;9.52;91.63;99835.50;1748490;81;21943;-74
2022/11/03 03:25:40;;;;;;;24.90;17.25;;;;;;;9.52;91.67;99825.28;1727868;82;20447;-73
2022/11/03 03:28:18;;;;;;;27.07;19.12;;;;;;;9.52;91.88;99832.81;1728088;80;21022;-75
2022/11/03 03:30:43;;;;;;;30.72;19.62;;;;;;;9.55;91.94;99830.98;1727154;83;21038;-73
2022/11/03 03:33:09;;;;;;;28.25;18.60;;;;;;;9.55;91.96;99832.85;1704718;81;20928;-71
2022/11/03 03:35:37;;;;;;;25.88;18.27;;;;;;;9.53;92.05;99824.23;1728032;81;21111;-72
2022/11/03 03:38:09;;;;;;;28.35;17.95;;;;;;;9.52;92.03;99826.63;1738499;80;21082;-69
2022/11/03 03:40:37;;;;;;;28.40;18.82;;;;;;;9.49;92.16;99824.44;1739892;82;20973;-70
2022/11/03 03:43:06;;;;;;;29.27;20.37;;;;;;;9.45;92.42;99821.39;1761326;81;21041;-69
2022/11/03 03:45:34;;;;;;;29.60;20.48;;;;;;;9.44;92.67;99824.34;1738379;81;21069;-68
2022/11/03 03:48:00;;;;;;;30.95;19.42;;;;;;;9.42;92.87;99815.69;1766689;81;21594;-70
2022/11/03 03:50:29;;;;;;;25.37;19.23;;;;;;;9.41;93.13;99815.40;1754711;81;21650;-69
2022/11/03 03:53:00;;;;;;;28.35;18.62;;;;;;;9.38;93.33;99814.02;1738776;79;21034;-70
2022/11/03 03:55:38;;;;;;;30.10;17.55;;;;;;;9.33;93.50;99815.78;1709281;82;20923;-70
2022/11/03 03:58:06;;;;;;;28.95;18.92;;;;;;;9.29;93.80;99815.45;1740618;79;21042;-68
2022/11/03 04:00:32;;;;;;;27.48;18.12;;;;;;;9.25;94.14;99807.59;1738098;82;21936;-74
2022/11/03 04:02:59;;;;;;;29.02;19.80;;;;;;;9.24;94.66;99807.83;1738128;82;21606;-74
2022/11/03 04:05:26;;;;;;;30.75;20.70;;;;;;;9.22;95.12;99803.21;1738662;82;21543;-76
2022/11/03 04:07:53;;;;;;;39.18;22.07;;;;;;;9.21;95.52;99811.00;1760716;79;20997;-72
2022/11/03 04:10:21;;;;;;;24.75;17.92;;;;;;;9.19;95.89;99809.36;1763811;80;21031;-74
2022/11/03 04:23:50;;;;;;;25.35;19.00;;;;;;;9.24;97.68;99794.41;1752897;81;21007;-76
2022/11/03 04:26:18;;;;;;;27.42;19.77;;;;;;;9.25;97.89;99796.86;1762973;81;21091;-76
2022/11/03 04:28:45;;;;;;;26.95;18.42;;;;;;;9.26;98.09;99791.76;1747053;82;21005;-77
2022/11/03 04:31:12;;;;;;;28.12;19.62;;;;;;;9.27;98.28;99788.03;1709392;82;20969;-77
2022/11/03 04:33:40;;;;;;;30.05;21.40;;;;;;;9.25;98.41;99786.13;1747194;82;21118;-77
2022/11/03 04:36:22;;;;;;;28.10;20.35;;;;;;;9.21;98.53;99782.27;1709967;82;21042;-75
2022/11/03 04:38:50;;;;;;;32.10;19.17;;;;;;;9.18;98.83;99783.58;1745641;80;21359;-75
2022/11/03 04:41:20;;;;;;;27.85;19.60;;;;;;;9.17;99.20;99775.23;1734746;82;20928;-74
2022/11/03 04:43:48;;;;;;;26.35;19.82;;;;;;;9.16;99.42;99778.95;1747500;82;21017;-75
2022/11/03 04:46:16;;;;;;;38.28;22.70;;;;;;;9.16;99.76;99782.16;1708869;82;21067;-75
2022/11/03 04:48:43;;;;;;;31.12;20.37;;;;;;;9.13;100.00;99783.47;1748823;80;21050;-75
2022/11/03 04:51:21;;;;;;;27.32;20.20;;;;;;;9.14;100.00;99787.79;1710081;82;21488;-76
2022/11/03 04:53:52;;;;;;;29.40;21.60;;;;;;;9.14;100.00;99791.81;1747805;80;21542;-76
2022/11/03 04:56:23;;;;;;;30.15;19.60;;;;;;;9.14;100.00;99793.16;1734838;82;21042;-76
2022/11/03 04:58:52;;;;;;;;;;;;;;;9.14;100.00;99795.02;1756678;80;20995;-76
2022/11/03 05:01:21;;;;;;;28.52;17.98;;;;;;;9.14;100.00;99795.02;1778109;80;20224;-74
2022/11/03 05:03:50;;;;;;;30.50;22.40;;;;;;;9.15;100.00;99788.61;1750667;80;21558;-73
2022/11/03 05:06:21;;;;;;;32.20;23.80;;;;;;;9.16;100.00;99794.23;1747118;81;21552;-74
2022/11/03 05:08:58;;;;;;;32.00;22.77;;;;;;;9.17;100.00;99799.90;1748450;80;21494;-75
2022/11/03 05:11:30;;;;;;;30.50;21.33;;;;;;;9.16;100.00;99793.72;1752118;80;21189;-73
2022/11/03 05:14:00;;;;;;;28.55;21.30;;;;;;;9.16;100.00;99791.55;1751459;80;20954;-74
2022/11/03 05:16:27;;;;;;;33.73;22.58;;;;;;;9.12;100.00;99791.22;1751407;80;21161;-73
2022/11/03 05:18:55;;;;;;;33.70;22.55;;;;;;;9.09;100.00;99801.63;1768013;81;21066;-72
2022/11/03 05:21:21;;;;;;;34.50;22.55;;;;;;;9.07;100.00;99798.34;1756014;80;21033;-72
2022/11/03 05:23:55;;;;;;;31.57;21.77;;;;;;;9.06;100.00;99796.74;1768264;81;20880;-73
2022/11/03 05:26:32;;;;;;;33.50;20.05;;;;;;;9.11;100.00;99799.53;1766641;81;20966;-73
2022/11/03 05:29:05;;;;;;;33.28;22.45;;;;;;;9.14;100.00;99793.68;1731642;81;21077;-75
2022/11/03 05:31:34;;;;;;;35.30;22.07;;;;;;;9.12;100.00;99796.59;1759773;81;21067;-76
2022/11/03 05:34:06;;;;;;;31.27;22.93;;;;;;;9.11;100.00;99804.89;1763980;81;21007;-76
2022/11/03 05:36:32;;;;;;;31.02;22.75;;;;;;;9.09;100.00;99808.33;1732978;81;21002;-73
2022/11/03 05:39:18;;;;;;;34.88;24.45;;;;;;;9.05;100.00;99805.84;1735132;81;21526;-73
2022/11/03 05:41:45;;;;;;;29.75;21.85;;;;;;;9.04;100.00;99798.31;1749394;81;21734;-74
2022/11/03 05:44:30;;;;;;;28.73;21.70;;;;;;;9.05;100.00;99796.45;1763770;81;21133;-74
2022/11/03 05:46:57;;;;;;;31.30;24.47;;;;;;;9.04;100.00;99808.23;1759428;81;21070;-75
2022/11/03 05:49:26;;;;;;;38.83;26.55;;;;;;;9.04;100.00;99799.66;1732852;82;21047;-74
2022/11/03 05:51:53;;;;;;;34.88;23.12;;;;;;;9.06;100.00;99798.91;1748336;81;21071;-74
2022/11/03 05:54:25;;;;;;;30.15;21.70;;;;;;;9.06;100.00;99802.92;1730228;81;22237;-73
2022/11/03 05:56:53;;;;;;;38.30;23.32;;;;;;;9.00;100.00;99801.19;1761883;81;21007;-75
2022/11/03 05:59:23;;;;;;;36.38;21.97;;;;;;;8.97;100.00;99805.66;1763772;81;20904;-74
2022/11/03 06:01:50;;;;;;;32.73;22.80;;;;;;;8.98;100.00;99799.77;1762167;80;21008;-73
2022/11/03 06:04:30;;;;;;;32.55;24.80;;;;;;;9.00;100.00;99796.34;1763306;81;21064;-73
2022/11/03 06:07:12;;;;;;;29.98;22.37;;;;;;;9.01;100.00;99797.45;1760403;80;21537;-78
2022/11/03 06:09:39;;;;;;;33.98;24.27;;;;;;;9.00;100.00;99801.19;1733280;81;20995;-76
2022/11/03 06:12:07;;;;;;;29.75;22.20;;;;;;;9.03;100.00;99802.04;1751843;81;21035;-77
2022/11/03 06:14:36;;;;;;;29.45;22.82;;;;;;;9.05;100.00;99805.31;1763363;81;21122;-75
2022/11/03 06:17:25;;;;;;;33.90;23.75;;;;;;;9.07;100.00;99805.05;1758580;80;21047;-76
2022/11/03 06:19:56;;;;;;;34.98;22.55;;;;;;;9.06;100.00;99802.11;1732763;82;21662;-75
2022/11/03 06:22:28;;;;;;;37.63;23.77;;;;;;;9.08;100.00;99798.13;1703439;81;21007;-72
2022/11/03 06:25:00;;;;;;;35.65;25.68;;;;;;;9.09;100.00;99804.30;1731429;81;21048;-77
2022/11/03 06:27:30;;;;;;;51.98;38.60;;;;;;;9.09;100.00;99802.97;1766696;80;20967;-77
2022/11/03 06:30:01;;;;;;;44.42;30.57;;;;;;;9.12;100.00;99809.19;1720235;82;21571;-78
2022/11/03 06:32:34;;;;;;;29.48;22.80;;;;;;;9.14;100.00;99809.78;1767249;80;21479;-76
2022/11/03 06:35:05;;;;;;;29.05;21.17;;;;;;;9.19;100.00;99808.54;1774696;80;20951;-76
2022/11/03 06:37:32;;;;;;;38.10;26.23;;;;;;;9.46;100.00;99805.58;1721667;80;21499;-76
2022/11/03 06:40:11;;;;;;;33.78;25.48;;;;;;;9.62;100.00;99811.53;1714736;83;20919;-74
2022/11/03 06:42:41;;;;;;;31.37;22.90;;;;;;;9.53;100.00;99812.16;1743082;81;21086;-74
2022/11/03 06:45:16;;;;;;;38.00;27.13;;;;;;;9.49;100.00;99813.17;1703063;83;21905;-75
2022/11/03 06:47:42;;;;;;;32.48;24.90;;;;;;;9.47;100.00;99811.77;1726399;81;21132;-74
2022/11/03 06:50:28;;;;;;;35.73;27.73;;;;;;;9.49;100.00;99814.52;1726192;83;20982;-74
2022/11/03 06:52:55;;;;;;;35.38;26.45;;;;;;;9.55;100.00;99812.19;1750588;81;21659;-74
2022/11/03 06:55:30;;;;;;;31.37;22.42;;;;;;;9.59;100.00;99809.86;1737311;81;21047;-74
2022/11/03 06:58:08;;;;;;;38.65;26.75;;;;;;;9.54;100.00;99807.09;1726281;83;21104;-75
2022/11/03 07:00:38;;;;;;;32.48;23.75;;;;;;;9.46;100.00;99804.23;1726443;81;21489;-75
2022/11/03 07:03:22;;;;;;;36.38;28.12;;;;;;;9.47;100.00;99799.69;1730731;81;21104;-75
2022/11/03 07:05:49;;;;;;;37.33;27.05;;;;;;;9.51;100.00;99802.17;1730177;81;21186;-74
2022/11/03 07:08:34;;;;;;;35.50;25.52;;;;;;;9.54;100.00;99799.03;1739953;81;21074;-74
2022/11/03 07:11:21;;;;;;;58.13;41.50;;;;;;;9.59;100.00;99796.44;1756079;81;21436;-75
2022/11/03 07:13:52;;;;;;;35.17;25.25;;;;;;;9.59;100.00;99796.44;1737289;81;21614;-73
2022/11/03 07:16:36;;;;;;;34.30;24.35;;;;;;;9.64;100.00;99795.16;1756436;81;21074;-74
2022/11/03 07:19:05;;;;;;;33.70;24.93;;;;;;;9.61;100.00;99797.81;1753967;81;21054;-75
2022/11/03 07:21:42;;;;;;;29.27;21.93;;;;;;;9.55;100.00;99793.40;1676508;83;22228;-73
2022/11/03 07:24:25;;;;;;;30.10;21.65;;;;;;;9.55;100.00;99789.89;1733956;81;21168;-73
2022/11/03 07:27:17;;;;;;;32.13;21.65;;;;;;;9.55;100.00;99793.40;1743576;80;21037;-74
2022/11/03 07:29:43;;;;;;;28.27;21.65;;;;;;;9.60;100.00;99794.83;1708869;82;21010;-75
2022/11/03 07:32:24;;;;;;;31.80;23.18;;;;;;;9.63;100.00;99797.58;1747485;81;21005;-77
2022/11/03 07:34:52;;;;;;;32.23;23.83;;;;;;;9.67;100.00;99786.64;1736136;80;21564;-72
2022/11/03 07:37:23;;;;;;;27.62;21.00;;;;;;;9.74;100.00;99789.97;1735302;82;21153;-75
2022/11/03 07:39:56;;;;;;;30.05;23.52;;;;;;;9.83;100.00;99786.39;1746856;81;21558;-73
2022/11/03 07:42:27;;;;;;;33.25;24.52;;;;;;;9.88;100.00;99785.92;1713069;82;22237;-74
2022/11/03 07:44:56;;;;;;;26.52;20.40;;;;;;;9.94;100.00;99786.30;1749454;81;21027;-75
2022/11/03 07:47:26;;;;;;;30.92;23.15;;;;;;;10.02;100.00;99785.10;1763182;81;21555;-75
2022/11/03 07:49:54;;;;;;;27.30;19.75;;;;;;;10.02;100.00;99791.27;1759109;81;21136;-73
2022/11/03 07:52:24;;;;;;;29.77;23.55;;;;;;;10.06;100.00;99788.40;1706885;82;21047;-76
2022/11/03 07:54:53;;;;;;;30.52;23.80;;;;;;;10.12;100.00;99793.86;1745482;81;21037;-75
2022/11/03 07:57:26;;;;;;;31.87;25.97;;;;;;;10.18;100.00;99790.20;1741892;81;21102;-72
2022/11/03 08:00:06;;;;;;;35.08;25.00;;;;;;;10.26;100.00;99792.50;1736231;81;21129;-73
2022/11/03 08:02:44;;;;;;;30.77;23.12;;;;;;;10.34;100.00;99792.90;1762865;81;21140;-72
2022/11/03 08:05:10;;;;;;;28.60;22.10;;;;;;;10.42;100.00;99791.12;1738051;81;21355;-74
2022/11/03 08:07:37;;;;;;;26.37;20.25;;;;;;;10.47;100.00;99789.86;1756526;81;20895;-71
2022/11/03 08:10:06;;;;;;;27.87;19.02;;;;;;;10.47;100.00;99790.39;1753836;81;22176;-73
2022/11/03 08:12:33;;;;;;;21.95;18.55;;;;;;;10.44;100.00;99788.20;1748242;81;21106;-74
2022/11/03 08:15:00;;;;;;;20.02;16.50;;;;;;;10.40;100.00;99789.23;1739450;81;21262;-73
2022/11/03 08:17:28;;;;;;;20.88;14.03;;;;;;;10.40;100.00;99787.07;1742451;81;21076;-74
2022/11/03 08:19:55;;;;;;;19.02;14.33;;;;;;;10.42;100.00;99784.94;1746278;81;21015;-73
2022/11/03 08:22:24;;;;;;;17.00;13.15;;;;;;;10.44;100.00;99780.95;1743638;81;21046;-74
2022/11/03 08:24:50;;;;;;;13.58;11.53;;;;;;;10.46;100.00;99788.23;1741171;81;21011;-73
2022/11/03 08:27:18;;;;;;;12.30;10.55;;;;;;;10.48;100.00;99786.64;1720694;82;21119;-74
2022/11/03 08:29:44;;;;;;;10.75;8.63;;;;;;;10.48;100.00;99780.74;1723308;82;21571;-73
2022/11/03 08:32:11;;;;;;;14.50;10.58;;;;;;;10.44;100.00;99786.86;1731947;82;21594;-71
2022/11/03 08:34:40;;;;;;;12.30;8.93;;;;;;;10.41;100.00;99779.27;1727316;82;21437;-72
2022/11/03 08:37:07;;;;;;;15.05;8.55;;;;;;;10.39;100.00;99783.57;1774048;80;21010;-74
2022/11/03 08:39:34;;;;;;;8.90;7.35;;;;;;;10.39;100.00;99777.38;1751396;81;21240;-71
2022/11/03 08:42:02;;;;;;;8.58;7.22;;;;;;;10.40;100.00;99773.63;1762353;81;21154;-72
2022/11/03 08:44:28;;;;;;;7.60;6.15;;;;;;;10.43;100.00;99766.41;1727954;82;20939;-71
2022/11/03 08:46:56;;;;;;;6.40;5.53;;;;;;;10.43;100.00;99761.84;1746762;81;21094;-71
2022/11/03 08:49:23;;;;;;;5.92;5.00;;;;;;;10.44;100.00;99762.66;1749307;81;21035;-73
2022/11/03 08:51:50;;;;;;;9.63;6.58;;;;;;;10.47;100.00;99760.28;1756235;81;21506;-74
2022/11/03 08:54:16;;;;;;;6.12;5.53;;;;;;;10.52;100.00;99758.72;1763002;80;21087;-72
2022/11/03 08:56:45;;;;;;;5.28;4.78;;;;;;;10.59;100.00;99759.38;1752658;80;21042;-73
2022/11/03 08:59:12;;;;;;;5.83;5.22;;;;;;;10.65;100.00;99761.05;1743841;82;21002;-74
2022/11/03 09:01:38;;;;;;;6.25;5.65;;;;;;;10.67;100.00;99762.45;1725834;83;21039;-74
2022/11/03 09:04:05;;;;;;;5.97;4.90;;;;;;;10.69;100.00;99752.27;1739641;81;21614;-75
2022/11/03 09:06:32;;;;;;;4.67;4.28;;;;;;;10.70;100.00;99748.48;1743042;81;21019;-73
2022/11/03 09:08:59;;;;;;;5.42;4.87;;;;;;;10.69;100.00;99746.88;1753762;81;21138;-74
2022/11/03 09:11:26;;;;;;;4.05;3.70;;;;;;;10.66;100.00;99754.61;1738424;81;20982;-74
2022/11/03 09:13:52;;;;;;;4.15;3.75;;;;;;;10.61;100.00;99758.05;1742481;81;21062;-74
2022/11/03 09:16:18;;;;;;;4.08;3.77;;;;;;;10.57;100.00;99764.17;1735962;81;21089;-74
2022/11/03 09:18:47;;;;;;;3.80;3.50;;;;;;;10.50;100.00;99757.09;1753844;81;21022;-75
2022/11/03 09:21:13;;;;;;;3.70;3.30;;;;;;;10.47;100.00;99750.05;1739849;81;20943;-75
2022/11/03 09:23:40;;;;;;;4.05;3.08;;;;;;;10.50;100.00;99757.64;1748015;81;21082;-75
2022/11/03 09:26:07;;;;;;;3.95;3.65;;;;;;;10.51;100.00;99753.88;1739128;81;21070;-75
2022/11/03 09:28:33;;;;;;;3.83;3.52;;;;;;;10.57;100.00;99754.77;1775338;80;21040;-74
2022/11/03 09:31:03;;;;;;;2.60;2.40;;;;;;;10.63;100.00;99753.25;1782746;80;20935;-74
2022/11/03 09:33:31;;;;;;;3.40;3.15;;;;;;;10.63;100.00;99738.45;1780872;80;21081;-74
2022/11/03 09:35:58;;;;;;;3.30;3.00;;;;;;;10.64;100.00;99746.00;1774679;80;21099;-75
2022/11/03 09:38:25;;;;;;;3.35;3.05;;;;;;;10.64;100.00;99746.00;1761259;80;20979;-74
2022/11/03 09:40:53;;;;;;;3.00;2.77;;;;;;;10.64;100.00;99745.47;1767616;79;21168;-74
2022/11/03 09:43:21;;;;;;;4.05;3.65;;;;;;;10.63;100.00;99742.49;1772295;78;21087;-75
2022/11/03 09:45:48;;;;;;;4.10;3.75;;;;;;;10.67;100.00;99745.48;1773769;80;20923;-74
2022/11/03 09:48:14;;;;;;;3.95;3.65;;;;;;;10.74;100.00;99740.20;1784152;80;20959;-74
2022/11/03 09:50:41;;;;;;;3.72;3.40;;;;;;;10.84;100.00;99744.89;1785019;80;21035;-74
2022/11/03 09:53:11;;;;;;;9.63;6.90;;;;;;;10.85;100.00;99747.88;1754989;80;21089;-75
2022/11/03 09:55:38;;;;;;;8.75;4.87;;;;;;;10.80;100.00;99743.77;1726332;81;20992;-75
2022/11/03 09:58:15;;;;;;;5.42;3.75;;;;;;;10.81;100.00;99744.05;1737935;81;21575;-73
2022/11/03 10:00:43;;;;;;;5.10;3.65;;;;;;;10.81;100.00;99741.37;1737144;81;21028;-75
2022/11/03 10:03:15;;;;;;;5.90;4.72;;;;;;;10.79;100.00;99737.57;1747245;81;21107;-73
2022/11/03 10:05:43;;;;;;;4.15;3.45;;;;;;;10.81;100.00;99741.37;1743104;80;21152;-74
2022/11/03 10:08:17;;;;;;;3.75;3.40;;;;;;;10.82;100.00;99737.09;1700198;82;20923;-74
2022/11/03 10:10:45;;;;;;;5.17;3.17;;;;;;;10.85;100.00;99732.55;1736930;80;21069;-75
2022/11/03 10:13:17;;;;;;;3.70;2.87;;;;;;;10.86;100.00;99740.09;1761244;81;20939;-75
2022/11/03 10:15:44;;;;;;;3.00;2.80;;;;;;;10.85;100.00;99740.61;1719522;81;23962;-73
2022/11/03 10:18:11;;;;;;;3.20;2.65;;;;;;;10.83;100.00;99733.87;1702826;82;20999;-74
2022/11/03 10:20:37;;;;;;;3.25;2.98;;;;;;;10.75;100.00;99744.52;1702511;82;21062;-73
2022/11/03 10:23:03;;;;;;;3.62;2.92;;;;;;;10.68;100.00;99742.56;1703548;82;21550;-73
2022/11/03 10:25:42;;;;;;;2.83;2.62;;;;;;;10.65;100.00;99735.50;1704134;83;21161;-72
2022/11/03 10:28:21;;;;;;;2.72;2.52;;;;;;;10.63;100.00;99736.30;1698553;83;21083;-75
2022/11/03 10:30:57;;;;;;;2.40;2.20;;;;;;;10.64;100.00;99737.93;1688534;83;21606;-68
2022/11/03 10:33:35;;;;;;;3.33;3.02;;;;;;;10.67;100.00;99744.14;1694622;84;20981;-71
2022/11/03 10:36:06;;;;;;;3.15;2.95;;;;;;;10.71;100.00;99738.55;1688077;84;21092;-72
2022/11/03 10:38:34;;;;;;;3.02;2.83;;;;;;;10.72;100.00;99741.52;1685063;83;21047;-70
2022/11/03 10:41:16;;;;;;;3.25;3.00;;;;;;;10.68;100.00;99739.88;1648917;86;21036;-73
2022/11/03 10:44:02;;;;;;;3.30;3.08;;;;;;;10.64;100.00;99741.97;1696739;84;21149;-74
2022/11/03 10:46:29;;;;;;;2.50;2.30;;;;;;;10.60;100.00;99747.56;1683524;85;20977;-79
2022/11/03 10:49:15;;;;;;;2.90;2.70;;;;;;;10.56;100.00;99737.81;1692769;83;21084;-81
2022/11/03 10:51:44;;;;;;;3.08;2.85;;;;;;;10.56;100.00;99734.30;1695240;83;21630;-81
2022/11/03 10:54:14;;;;;;;2.60;2.40;;;;;;;10.54;100.00;99731.88;1669026;83;21111;-83
2022/11/03 10:56:45;;;;;;;3.35;3.12;;;;;;;10.52;100.00;99740.72;1710593;83;21743;-84
2022/11/03 10:59:23;;;;;;;3.30;3.08;;;;;;;10.47;100.00;99733.39;1655466;85;21017;-80
2022/11/03 11:01:52;;;;;;;3.08;2.87;;;;;;;10.44;100.00;99736.59;1657244;85;21546;-80
2022/11/03 11:04:21;;;;;;;2.67;2.47;;;;;;;10.43;100.00;99737.64;1700246;83;21535;-78
2022/11/03 11:06:48;;;;;;;3.08;2.85;;;;;;;10.41;100.00;99740.28;1699653;83;22224;-76
2022/11/03 11:09:26;;;;;;;2.77;2.58;;;;;;;10.37;100.00;99734.59;1682427;85;21579;-73
2022/11/03 11:12:08;;;;;;;2.83;2.62;;;;;;;10.38;100.00;99741.61;1683392;83;21049;-76
2022/11/03 11:14:38;;;;;;;3.50;3.20;;;;;;;10.38;100.00;99738.92;1675088;84;21817;-71
2022/11/03 11:17:30;;;;;;;3.02;2.72;;;;;;;10.38;100.00;99740.26;1683804;84;21078;-71
2022/11/03 11:20:30;;;;;;;2.70;2.50;;;;;;;10.35;100.00;99737.26;1638544;85;21120;-77
2022/11/03 11:23:35;;;;;;;3.17;2.98;;;;;;;10.34;100.00;99745.03;1696880;84;21248;-72
2022/11/03 11:26:12;;;;;;;3.25;2.98;;;;;;;10.28;100.00;99733.92;1691484;82;21111;-67
2022/11/03 11:28:43;;;;;;;3.08;2.87;;;;;;;10.27;100.00;99734.44;1701341;84;22164;-69
2022/11/03 11:31:30;;;;;;;3.27;2.98;;;;;;;10.26;100.00;99728.81;1702758;82;21057;-74
2022/11/03 11:34:18;;;;;;;3.12;2.72;;;;;;;10.24;100.00;99733.60;1703240;84;21094;-83
2022/11/03 11:36:52;;;;;;;2.98;2.77;;;;;;;10.26;100.00;99738.22;1703702;84;21163;-75
2022/11/03 11:39:30;;;;;;;3.70;3.50;;;;;;;10.24;100.00;99743.02;1703308;82;21254;-83
2022/11/03 11:42:09;;;;;;;2.80;2.58;;;;;;;10.25;100.00;99738.45;1682636;83;21048;-82
2022/11/03 11:44:45;;;;;;;4.00;3.62;;;;;;;10.25;100.00;99743.30;1675822;85;21054;-73
2022/11/03 11:47:38;;;;;;;3.55;3.25;;;;;;;10.20;100.00;99744.56;1676017;85;21110;-70
2022/11/03 11:50:10;;;;;;;3.75;3.45;;;;;;;10.14;100.00;99736.63;1717089;81;21080;-68
2022/11/03 11:53:03;;;;;;;3.90;3.60;;;;;;;10.13;100.00;99739.02;1722975;83;21071;-68
2022/11/03 11:55:39;;;;;;;3.77;3.45;;;;;;;10.13;100.00;99740.38;1721936;83;21619;-69
2022/11/03 11:58:21;;;;;;;5.25;4.12;;;;;;;10.13;100.00;99739.84;1719424;83;20987;-73